Página principal
METAR-TAF:

METAR-TAF

Aeroportos :

Aeroporto Internacional do Cairo

Cairo, Egipto

latitude: 30-08N, longitude: 031-24E, altura: 64 m

Observação actual do tempo

O boletim foi feito há 27 minutos, às 22:30 UTC
Vento 2 kt de es-nordeste
Temperatura 13°C
Humidade 77%
Pressão 1018 hPa
Visibilidade 10 km ou mais
sem nuvens abaixo de 1500 metros e sem cumulonimbus

METAR: HECA 202230Z 07002KT CAVOK 13/09 Q1018 NOSIG

Hora: 00:57 (22:57 UTC)

Previsão

O boletim foi feito há 5 horas e 57 minutos, às 17:00 UTC
Previsão válida de 20 às 18 UTC a 21 às 24 UTC
Vento 7 kt de nordeste
Visibilidade: 6000 m
Poucas nuvensa uma altura de 2500 ft
Temporariamente
de 20 às 20 UTC a 21 às 07 UTC
Vento 3 kt com direcção variável
Visibilidade: 4000 m
bruma
Temporariamente
de 21 às 00 UTC a 21 às 06 UTC
Visibilidade: 2000 m

TAF: HECA 201700Z 2018/2124 04007KT 6000 FEW025 TEMPO 2020/2107 VRB03KT 4000 HZ NSC TEMPO 2100/2106 2000

Observações e previsões do tempo de mais de 4000 aeroportos (mensagens METAR e TAF).

As estações disponíveis são os pontos amarelos e vermelhos sobre o mapa.

Mova o rato sobre o mapa para ver o nome da estação.

Depois clique no ponto para visualizar as observações e previsões meteorológicas.

Para alterar o mapa : clique nos botões verdes com uma cruz preta para aumentar o zoom; no botão verde com uma pitada de zoom; ou nas setas verdes para mapas adjacentes.


METAR-TAF: